sensor_id;sensor_type;location;lat;lon;timestamp;P1;durP1;ratioP1;P2;durP2;ratioP2
3567;SDS011;1798;48.486;9.232;2023-11-19T00:01:41;12.37;;;7.30;;
3567;SDS011;1798;48.486;9.232;2023-11-19T00:04:08;15.10;;;6.60;;
3567;SDS011;1798;48.486;9.232;2023-11-19T00:06:36;13.00;;;6.70;;
3567;SDS011;1798;48.486;9.232;2023-11-19T00:09:02;13.63;;;6.13;;
3567;SDS011;1798;48.486;9.232;2023-11-19T00:11:30;10.60;;;5.57;;
3567;SDS011;1798;48.486;9.232;2023-11-19T00:13:56;16.43;;;8.57;;
3567;SDS011;1798;48.486;9.232;2023-11-19T00:16:23;12.10;;;6.00;;
3567;SDS011;1798;48.486;9.232;2023-11-19T00:18:49;10.43;;;5.17;;
3567;SDS011;1798;48.486;9.232;2023-11-19T00:21:16;13.33;;;6.40;;
3567;SDS011;1798;48.486;9.232;2023-11-19T00:23:44;18.53;;;5.67;;
3567;SDS011;1798;48.486;9.232;2023-11-19T00:26:10;10.00;;;5.07;;
3567;SDS011;1798;48.486;9.232;2023-11-19T00:28:38;12.27;;;5.43;;
3567;SDS011;1798;48.486;9.232;2023-11-19T00:31:05;10.50;;;4.90;;
3567;SDS011;1798;48.486;9.232;2023-11-19T00:33:31;8.60;;;4.30;;
3567;SDS011;1798;48.486;9.232;2023-11-19T00:35:58;9.07;;;4.27;;
3567;SDS011;1798;48.486;9.232;2023-11-19T00:38:24;9.20;;;3.67;;
3567;SDS011;1798;48.486;9.232;2023-11-19T00:40:52;7.83;;;4.40;;
3567;SDS011;1798;48.486;9.232;2023-11-19T00:43:19;7.40;;;4.13;;
3567;SDS011;1798;48.486;9.232;2023-11-19T00:45:47;6.83;;;4.33;;
3567;SDS011;1798;48.486;9.232;2023-11-19T00:48:15;7.10;;;3.60;;
3567;SDS011;1798;48.486;9.232;2023-11-19T00:50:42;6.57;;;3.00;;
3567;SDS011;1798;48.486;9.232;2023-11-19T00:53:09;7.93;;;3.20;;
3567;SDS011;1798;48.486;9.232;2023-11-19T00:55:36;6.13;;;3.40;;
3567;SDS011;1798;48.486;9.232;2023-11-19T00:58:04;6.27;;;3.43;;
3567;SDS011;1798;48.486;9.232;2023-11-19T01:00:31;5.40;;;2.80;;
3567;SDS011;1798;48.486;9.232;2023-11-19T01:02:57;6.17;;;2.80;;
3567;SDS011;1798;48.486;9.232;2023-11-19T01:05:24;4.40;;;2.50;;
3567;SDS011;1798;48.486;9.232;2023-11-19T01:07:52;5.27;;;3.13;;
3567;SDS011;1798;48.486;9.232;2023-11-19T01:10:19;5.47;;;3.10;;
3567;SDS011;1798;48.486;9.232;2023-11-19T01:12:46;5.50;;;3.10;;
3567;SDS011;1798;48.486;9.232;2023-11-19T01:15:14;10.17;;;4.47;;
3567;SDS011;1798;48.486;9.232;2023-11-19T01:17:40;5.27;;;2.80;;
3567;SDS011;1798;48.486;9.232;2023-11-19T01:20:08;4.70;;;2.80;;
3567;SDS011;1798;48.486;9.232;2023-11-19T01:22:38;6.30;;;3.70;;
3567;SDS011;1798;48.486;9.232;2023-11-19T01:25:05;7.03;;;2.50;;
3567;SDS011;1798;48.486;9.232;2023-11-19T01:27:32;5.13;;;2.50;;
3567;SDS011;1798;48.486;9.232;2023-11-19T01:30:00;4.40;;;2.50;;
3567;SDS011;1798;48.486;9.232;2023-11-19T01:32:31;7.50;;;3.40;;
3567;SDS011;1798;48.486;9.232;2023-11-19T01:34:57;8.33;;;4.33;;
3567;SDS011;1798;48.486;9.232;2023-11-19T01:37:24;5.70;;;2.60;;
3567;SDS011;1798;48.486;9.232;2023-11-19T01:39:50;5.33;;;2.60;;
3567;SDS011;1798;48.486;9.232;2023-11-19T01:42:17;5.13;;;2.70;;
3567;SDS011;1798;48.486;9.232;2023-11-19T01:44:54;5.13;;;2.90;;
3567;SDS011;1798;48.486;9.232;2023-11-19T01:47:21;5.40;;;3.17;;
3567;SDS011;1798;48.486;9.232;2023-11-19T01:49:49;4.10;;;2.20;;
3567;SDS011;1798;48.486;9.232;2023-11-19T01:52:16;4.03;;;2.43;;
3567;SDS011;1798;48.486;9.232;2023-11-19T01:54:43;7.43;;;3.30;;
3567;SDS011;1798;48.486;9.232;2023-11-19T01:57:10;4.23;;;2.53;;
3567;SDS011;1798;48.486;9.232;2023-11-19T01:59:37;8.20;;;3.87;;
3567;SDS011;1798;48.486;9.232;2023-11-19T02:02:03;4.60;;;2.70;;
3567;SDS011;1798;48.486;9.232;2023-11-19T02:04:30;6.73;;;4.10;;
3567;SDS011;1798;48.486;9.232;2023-11-19T02:06:59;4.90;;;2.40;;
3567;SDS011;1798;48.486;9.232;2023-11-19T02:09:25;9.17;;;4.17;;
3567;SDS011;1798;48.486;9.232;2023-11-19T02:11:52;8.33;;;2.10;;
3567;SDS011;1798;48.486;9.232;2023-11-19T02:14:19;7.43;;;4.00;;
3567;SDS011;1798;48.486;9.232;2023-11-19T02:16:50;6.37;;;2.77;;
3567;SDS011;1798;48.486;9.232;2023-11-19T02:19:18;3.83;;;2.10;;
3567;SDS011;1798;48.486;9.232;2023-11-19T02:21:45;6.27;;;3.03;;
3567;SDS011;1798;48.486;9.232;2023-11-19T02:24:14;7.73;;;3.00;;
3567;SDS011;1798;48.486;9.232;2023-11-19T02:26:44;4.50;;;2.40;;
3567;SDS011;1798;48.486;9.232;2023-11-19T02:29:16;4.83;;;2.20;;
3567;SDS011;1798;48.486;9.232;2023-11-19T02:31:43;5.13;;;2.73;;
3567;SDS011;1798;48.486;9.232;2023-11-19T02:34:10;5.40;;;2.73;;
3567;SDS011;1798;48.486;9.232;2023-11-19T02:36:37;9.20;;;2.67;;
3567;SDS011;1798;48.486;9.232;2023-11-19T02:39:06;4.10;;;2.20;;
3567;SDS011;1798;48.486;9.232;2023-11-19T02:41:36;4.67;;;2.73;;
3567;SDS011;1798;48.486;9.232;2023-11-19T02:44:07;10.30;;;3.07;;
3567;SDS011;1798;48.486;9.232;2023-11-19T02:46:35;5.60;;;3.37;;
3567;SDS011;1798;48.486;9.232;2023-11-19T02:49:02;6.97;;;2.80;;
3567;SDS011;1798;48.486;9.232;2023-11-19T02:51:28;5.90;;;2.40;;
3567;SDS011;1798;48.486;9.232;2023-11-19T02:53:55;4.00;;;2.50;;
3567;SDS011;1798;48.486;9.232;2023-11-19T02:56:22;6.67;;;3.27;;
3567;SDS011;1798;48.486;9.232;2023-11-19T02:58:51;5.10;;;2.70;;
3567;SDS011;1798;48.486;9.232;2023-11-19T03:01:21;5.30;;;3.17;;
3567;SDS011;1798;48.486;9.232;2023-11-19T03:03:55;7.30;;;2.70;;
3567;SDS011;1798;48.486;9.232;2023-11-19T03:06:23;8.20;;;2.70;;
3567;SDS011;1798;48.486;9.232;2023-11-19T03:08:49;46.40;;;3.47;;
3567;SDS011;1798;48.486;9.232;2023-11-19T03:11:16;6.70;;;3.90;;
3567;SDS011;1798;48.486;9.232;2023-11-19T03:13:42;4.30;;;2.10;;
3567;SDS011;1798;48.486;9.232;2023-11-19T03:16:09;7.23;;;4.03;;
3567;SDS011;1798;48.486;9.232;2023-11-19T03:18:36;5.40;;;3.03;;
3567;SDS011;1798;48.486;9.232;2023-11-19T03:21:05;8.33;;;3.47;;
3567;SDS011;1798;48.486;9.232;2023-11-19T03:23:32;6.57;;;3.30;;
3567;SDS011;1798;48.486;9.232;2023-11-19T03:25:59;5.70;;;3.40;;
3567;SDS011;1798;48.486;9.232;2023-11-19T03:28:28;4.40;;;2.30;;
3567;SDS011;1798;48.486;9.232;2023-11-19T03:30:55;5.00;;;3.03;;
3567;SDS011;1798;48.486;9.232;2023-11-19T03:33:22;4.97;;;3.10;;
3567;SDS011;1798;48.486;9.232;2023-11-19T03:35:50;4.80;;;2.70;;
3567;SDS011;1798;48.486;9.232;2023-11-19T03:38:18;5.13;;;3.13;;
3567;SDS011;1798;48.486;9.232;2023-11-19T03:40:45;5.00;;;2.93;;
3567;SDS011;1798;48.486;9.232;2023-11-19T03:43:12;7.30;;;3.73;;
3567;SDS011;1798;48.486;9.232;2023-11-19T03:45:38;4.50;;;2.20;;
3567;SDS011;1798;48.486;9.232;2023-11-19T03:48:05;7.53;;;2.77;;
3567;SDS011;1798;48.486;9.232;2023-11-19T03:50:32;7.50;;;2.40;;
3567;SDS011;1798;48.486;9.232;2023-11-19T03:52:58;5.87;;;3.63;;
3567;SDS011;1798;48.486;9.232;2023-11-19T03:55:26;6.07;;;3.17;;
3567;SDS011;1798;48.486;9.232;2023-11-19T03:57:54;6.17;;;2.90;;
3567;SDS011;1798;48.486;9.232;2023-11-19T04:00:20;7.27;;;3.80;;
3567;SDS011;1798;48.486;9.232;2023-11-19T04:02:47;5.33;;;3.47;;
3567;SDS011;1798;48.486;9.232;2023-11-19T04:05:13;6.20;;;3.13;;
3567;SDS011;1798;48.486;9.232;2023-11-19T04:07:40;4.10;;;2.10;;
3567;SDS011;1798;48.486;9.232;2023-11-19T04:10:07;4.90;;;3.10;;
3567;SDS011;1798;48.486;9.232;2023-11-19T04:12:35;11.57;;;3.10;;
3567;SDS011;1798;48.486;9.232;2023-11-19T04:15:02;4.30;;;2.50;;
3567;SDS011;1798;48.486;9.232;2023-11-19T04:17:29;5.07;;;3.10;;
3567;SDS011;1798;48.486;9.232;2023-11-19T04:19:56;6.10;;;3.63;;
3567;SDS011;1798;48.486;9.232;2023-11-19T04:22:22;4.70;;;2.70;;
3567;SDS011;1798;48.486;9.232;2023-11-19T04:24:49;6.27;;;3.53;;
3567;SDS011;1798;48.486;9.232;2023-11-19T04:27:15;5.77;;;3.40;;
3567;SDS011;1798;48.486;9.232;2023-11-19T04:29:43;5.43;;;1.93;;
3567;SDS011;1798;48.486;9.232;2023-11-19T04:32:10;7.80;;;2.47;;
3567;SDS011;1798;48.486;9.232;2023-11-19T04:34:37;5.87;;;3.70;;
3567;SDS011;1798;48.486;9.232;2023-11-19T04:37:04;5.20;;;2.90;;
3567;SDS011;1798;48.486;9.232;2023-11-19T04:39:30;4.13;;;2.37;;
3567;SDS011;1798;48.486;9.232;2023-11-19T04:41:57;5.00;;;3.10;;
3567;SDS011;1798;48.486;9.232;2023-11-19T04:44:24;5.43;;;3.40;;
3567;SDS011;1798;48.486;9.232;2023-11-19T04:46:52;3.73;;;2.10;;
3567;SDS011;1798;48.486;9.232;2023-11-19T04:49:18;5.40;;;3.07;;
3567;SDS011;1798;48.486;9.232;2023-11-19T04:51:45;5.80;;;3.47;;
3567;SDS011;1798;48.486;9.232;2023-11-19T04:54:13;5.40;;;3.20;;
3567;SDS011;1798;48.486;9.232;2023-11-19T04:56:40;5.17;;;2.73;;
3567;SDS011;1798;48.486;9.232;2023-11-19T04:59:06;4.60;;;2.97;;
3567;SDS011;1798;48.486;9.232;2023-11-19T05:01:34;4.70;;;2.40;;
3567;SDS011;1798;48.486;9.232;2023-11-19T05:04:02;5.47;;;2.80;;
3567;SDS011;1798;48.486;9.232;2023-11-19T05:06:29;4.60;;;2.90;;
3567;SDS011;1798;48.486;9.232;2023-11-19T05:08:55;5.20;;;2.87;;
3567;SDS011;1798;48.486;9.232;2023-11-19T05:11:22;4.20;;;2.20;;
3567;SDS011;1798;48.486;9.232;2023-11-19T05:13:49;6.10;;;3.20;;
3567;SDS011;1798;48.486;9.232;2023-11-19T05:16:16;5.60;;;3.13;;
3567;SDS011;1798;48.486;9.232;2023-11-19T05:18:42;4.77;;;2.67;;
3567;SDS011;1798;48.486;9.232;2023-11-19T05:21:10;6.23;;;3.07;;
3567;SDS011;1798;48.486;9.232;2023-11-19T05:23:37;7.20;;;3.07;;
3567;SDS011;1798;48.486;9.232;2023-11-19T05:26:04;4.80;;;2.60;;
3567;SDS011;1798;48.486;9.232;2023-11-19T05:28:31;5.10;;;2.93;;
3567;SDS011;1798;48.486;9.232;2023-11-19T05:30:58;4.87;;;2.80;;
3567;SDS011;1798;48.486;9.232;2023-11-19T05:33:24;4.30;;;2.40;;
3567;SDS011;1798;48.486;9.232;2023-11-19T05:35:51;4.30;;;2.53;;
3567;SDS011;1798;48.486;9.232;2023-11-19T05:38:19;3.90;;;1.97;;
3567;SDS011;1798;48.486;9.232;2023-11-19T05:40:46;5.10;;;3.10;;
3567;SDS011;1798;48.486;9.232;2023-11-19T05:43:13;4.60;;;2.70;;
3567;SDS011;1798;48.486;9.232;2023-11-19T05:45:41;4.57;;;2.47;;
3567;SDS011;1798;48.486;9.232;2023-11-19T05:48:08;5.00;;;2.87;;
3567;SDS011;1798;48.486;9.232;2023-11-19T05:50:35;4.70;;;3.10;;
3567;SDS011;1798;48.486;9.232;2023-11-19T05:53:01;5.07;;;2.93;;
3567;SDS011;1798;48.486;9.232;2023-11-19T05:55:33;5.20;;;2.77;;
3567;SDS011;1798;48.486;9.232;2023-11-19T05:57:59;4.27;;;2.60;;
3567;SDS011;1798;48.486;9.232;2023-11-19T06:00:26;7.93;;;2.80;;
3567;SDS011;1798;48.486;9.232;2023-11-19T06:02:52;4.80;;;2.90;;
3567;SDS011;1798;48.486;9.232;2023-11-19T06:05:19;4.50;;;2.60;;
3567;SDS011;1798;48.486;9.232;2023-11-19T06:07:45;4.80;;;3.30;;
3567;SDS011;1798;48.486;9.232;2023-11-19T06:10:12;4.83;;;2.93;;
3567;SDS011;1798;48.486;9.232;2023-11-19T06:12:43;6.93;;;3.10;;
3567;SDS011;1798;48.486;9.232;2023-11-19T06:15:11;3.83;;;2.17;;
3567;SDS011;1798;48.486;9.232;2023-11-19T06:17:38;4.30;;;2.20;;
3567;SDS011;1798;48.486;9.232;2023-11-19T06:20:05;4.73;;;2.67;;
3567;SDS011;1798;48.486;9.232;2023-11-19T06:22:32;4.90;;;2.90;;
3567;SDS011;1798;48.486;9.232;2023-11-19T06:25:00;5.30;;;3.30;;
3567;SDS011;1798;48.486;9.232;2023-11-19T06:27:32;3.90;;;2.07;;
3567;SDS011;1798;48.486;9.232;2023-11-19T06:30:00;4.00;;;2.10;;
3567;SDS011;1798;48.486;9.232;2023-11-19T06:32:26;9.90;;;3.57;;
3567;SDS011;1798;48.486;9.232;2023-11-19T06:34:53;5.10;;;2.37;;
3567;SDS011;1798;48.486;9.232;2023-11-19T06:37:20;4.93;;;3.00;;
3567;SDS011;1798;48.486;9.232;2023-11-19T06:39:47;4.60;;;2.80;;
3567;SDS011;1798;48.486;9.232;2023-11-19T06:42:14;4.50;;;2.67;;
3567;SDS011;1798;48.486;9.232;2023-11-19T06:44:40;3.77;;;2.10;;
3567;SDS011;1798;48.486;9.232;2023-11-19T06:47:08;5.63;;;2.60;;
3567;SDS011;1798;48.486;9.232;2023-11-19T06:49:35;4.50;;;2.60;;
3567;SDS011;1798;48.486;9.232;2023-11-19T06:52:02;8.40;;;2.90;;
3567;SDS011;1798;48.486;9.232;2023-11-19T06:54:30;5.30;;;3.10;;
3567;SDS011;1798;48.486;9.232;2023-11-19T06:56:57;4.43;;;2.53;;
3567;SDS011;1798;48.486;9.232;2023-11-19T06:59:23;5.20;;;2.80;;
3567;SDS011;1798;48.486;9.232;2023-11-19T07:01:50;4.57;;;2.80;;
3567;SDS011;1798;48.486;9.232;2023-11-19T07:04:18;4.60;;;3.00;;
3567;SDS011;1798;48.486;9.232;2023-11-19T07:06:44;6.90;;;2.37;;
3567;SDS011;1798;48.486;9.232;2023-11-19T07:09:11;4.60;;;2.63;;
3567;SDS011;1798;48.486;9.232;2023-11-19T07:11:39;4.83;;;2.73;;
3567;SDS011;1798;48.486;9.232;2023-11-19T07:14:06;7.20;;;2.93;;
3567;SDS011;1798;48.486;9.232;2023-11-19T07:16:33;4.60;;;2.67;;
3567;SDS011;1798;48.486;9.232;2023-11-19T07:19:00;5.17;;;2.50;;
3567;SDS011;1798;48.486;9.232;2023-11-19T07:21:27;4.73;;;2.87;;
3567;SDS011;1798;48.486;9.232;2023-11-19T07:23:54;4.83;;;2.40;;
3567;SDS011;1798;48.486;9.232;2023-11-19T07:26:21;4.00;;;2.30;;
3567;SDS011;1798;48.486;9.232;2023-11-19T07:28:48;4.70;;;3.10;;
3567;SDS011;1798;48.486;9.232;2023-11-19T07:31:14;3.90;;;2.03;;
3567;SDS011;1798;48.486;9.232;2023-11-19T07:33:41;3.93;;;2.17;;
3567;SDS011;1798;48.486;9.232;2023-11-19T07:36:09;4.00;;;2.20;;
3567;SDS011;1798;48.486;9.232;2023-11-19T07:38:37;12.43;;;2.53;;
3567;SDS011;1798;48.486;9.232;2023-11-19T07:41:04;4.40;;;2.80;;
3567;SDS011;1798;48.486;9.232;2023-11-19T07:43:32;5.10;;;2.80;;
3567;SDS011;1798;48.486;9.232;2023-11-19T07:45:58;4.87;;;2.80;;
3567;SDS011;1798;48.486;9.232;2023-11-19T07:48:25;4.53;;;2.70;;
3567;SDS011;1798;48.486;9.232;2023-11-19T07:50:52;4.90;;;2.70;;
3567;SDS011;1798;48.486;9.232;2023-11-19T07:53:19;4.90;;;2.97;;
3567;SDS011;1798;48.486;9.232;2023-11-19T07:55:47;4.53;;;2.50;;
3567;SDS011;1798;48.486;9.232;2023-11-19T07:58:13;4.57;;;2.63;;
3567;SDS011;1798;48.486;9.232;2023-11-19T08:00:40;16.40;;;2.33;;
3567;SDS011;1798;48.486;9.232;2023-11-19T08:03:06;4.60;;;2.70;;
3567;SDS011;1798;48.486;9.232;2023-11-19T08:05:33;4.20;;;2.37;;
3567;SDS011;1798;48.486;9.232;2023-11-19T08:08:00;3.80;;;2.10;;
3567;SDS011;1798;48.486;9.232;2023-11-19T08:10:26;8.13;;;2.67;;
3567;SDS011;1798;48.486;9.232;2023-11-19T08:12:55;4.33;;;2.30;;
3567;SDS011;1798;48.486;9.232;2023-11-19T08:15:21;4.10;;;2.40;;
3567;SDS011;1798;48.486;9.232;2023-11-19T08:17:48;5.60;;;2.87;;
3567;SDS011;1798;48.486;9.232;2023-11-19T08:20:14;5.33;;;2.60;;
3567;SDS011;1798;48.486;9.232;2023-11-19T08:22:41;5.83;;;2.10;;
3567;SDS011;1798;48.486;9.232;2023-11-19T08:25:08;4.63;;;2.70;;
3567;SDS011;1798;48.486;9.232;2023-11-19T08:27:35;6.43;;;2.70;;
3567;SDS011;1798;48.486;9.232;2023-11-19T08:30:03;4.00;;;2.17;;
3567;SDS011;1798;48.486;9.232;2023-11-19T08:32:31;6.03;;;2.30;;
3567;SDS011;1798;48.486;9.232;2023-11-19T08:34:58;5.07;;;3.03;;
3567;SDS011;1798;48.486;9.232;2023-11-19T08:37:24;4.90;;;2.73;;
3567;SDS011;1798;48.486;9.232;2023-11-19T08:39:51;6.27;;;2.77;;
3567;SDS011;1798;48.486;9.232;2023-11-19T08:42:17;4.50;;;2.40;;
3567;SDS011;1798;48.486;9.232;2023-11-19T08:44:45;4.30;;;2.60;;
3567;SDS011;1798;48.486;9.232;2023-11-19T08:47:17;4.63;;;2.40;;
3567;SDS011;1798;48.486;9.232;2023-11-19T08:49:44;4.93;;;2.47;;
3567;SDS011;1798;48.486;9.232;2023-11-19T08:52:11;5.23;;;2.93;;
3567;SDS011;1798;48.486;9.232;2023-11-19T08:54:38;4.60;;;2.33;;
3567;SDS011;1798;48.486;9.232;2023-11-19T08:57:08;4.07;;;2.17;;
3567;SDS011;1798;48.486;9.232;2023-11-19T08:59:35;4.23;;;2.43;;
3567;SDS011;1798;48.486;9.232;2023-11-19T09:02:04;5.73;;;2.90;;
3567;SDS011;1798;48.486;9.232;2023-11-19T09:04:33;4.77;;;2.40;;
3567;SDS011;1798;48.486;9.232;2023-11-19T09:07:01;4.40;;;2.70;;
3567;SDS011;1798;48.486;9.232;2023-11-19T09:09:28;5.90;;;2.60;;
3567;SDS011;1798;48.486;9.232;2023-11-19T09:11:54;4.13;;;2.33;;
3567;SDS011;1798;48.486;9.232;2023-11-19T09:14:21;4.10;;;2.60;;
3567;SDS011;1798;48.486;9.232;2023-11-19T09:16:50;5.83;;;3.00;;
3567;SDS011;1798;48.486;9.232;2023-11-19T09:19:17;5.83;;;2.80;;
3567;SDS011;1798;48.486;9.232;2023-11-19T09:21:45;4.60;;;2.80;;
3567;SDS011;1798;48.486;9.232;2023-11-19T09:24:14;5.30;;;2.70;;
3567;SDS011;1798;48.486;9.232;2023-11-19T09:26:40;4.83;;;2.60;;
3567;SDS011;1798;48.486;9.232;2023-11-19T09:29:07;4.47;;;2.40;;
3567;SDS011;1798;48.486;9.232;2023-11-19T09:31:34;5.20;;;2.90;;
3567;SDS011;1798;48.486;9.232;2023-11-19T09:34:01;5.73;;;2.40;;
3567;SDS011;1798;48.486;9.232;2023-11-19T09:36:27;4.00;;;2.27;;
3567;SDS011;1798;48.486;9.232;2023-11-19T09:38:55;4.30;;;2.70;;
3567;SDS011;1798;48.486;9.232;2023-11-19T09:41:22;6.63;;;2.70;;
3567;SDS011;1798;48.486;9.232;2023-11-19T09:43:50;4.30;;;2.30;;
3567;SDS011;1798;48.486;9.232;2023-11-19T09:46:17;4.60;;;2.63;;
3567;SDS011;1798;48.486;9.232;2023-11-19T09:48:44;4.27;;;2.33;;
3567;SDS011;1798;48.486;9.232;2023-11-19T09:51:10;4.40;;;2.40;;
3567;SDS011;1798;48.486;9.232;2023-11-19T09:53:37;4.03;;;2.40;;
3567;SDS011;1798;48.486;9.232;2023-11-19T09:56:06;9.90;;;3.80;;
3567;SDS011;1798;48.486;9.232;2023-11-19T09:58:34;6.70;;;4.17;;
3567;SDS011;1798;48.486;9.232;2023-11-19T10:01:02;6.50;;;3.57;;
3567;SDS011;1798;48.486;9.232;2023-11-19T10:03:33;6.93;;;3.57;;
3567;SDS011;1798;48.486;9.232;2023-11-19T10:06:00;7.00;;;3.33;;
3567;SDS011;1798;48.486;9.232;2023-11-19T10:08:27;15.43;;;2.73;;
3567;SDS011;1798;48.486;9.232;2023-11-19T10:10:53;14.63;;;2.30;;
3567;SDS011;1798;48.486;9.232;2023-11-19T10:13:22;5.73;;;3.20;;
3567;SDS011;1798;48.486;9.232;2023-11-19T10:15:52;6.10;;;3.40;;
3567;SDS011;1798;48.486;9.232;2023-11-19T10:18:23;6.20;;;3.20;;
3567;SDS011;1798;48.486;9.232;2023-11-19T10:20:50;8.03;;;3.70;;
3567;SDS011;1798;48.486;9.232;2023-11-19T10:23:17;8.80;;;3.80;;
3567;SDS011;1798;48.486;9.232;2023-11-19T10:25:44;5.43;;;3.17;;
3567;SDS011;1798;48.486;9.232;2023-11-19T10:28:11;6.70;;;3.30;;
3567;SDS011;1798;48.486;9.232;2023-11-19T10:30:39;5.30;;;3.20;;
3567;SDS011;1798;48.486;9.232;2023-11-19T10:33:08;6.40;;;3.57;;
3567;SDS011;1798;48.486;9.232;2023-11-19T10:35:36;6.40;;;3.50;;
3567;SDS011;1798;48.486;9.232;2023-11-19T10:38:15;5.93;;;3.10;;
3567;SDS011;1798;48.486;9.232;2023-11-19T10:40:42;5.97;;;3.30;;
3567;SDS011;1798;48.486;9.232;2023-11-19T10:43:09;5.97;;;2.80;;
3567;SDS011;1798;48.486;9.232;2023-11-19T10:45:36;6.90;;;3.60;;
3567;SDS011;1798;48.486;9.232;2023-11-19T10:48:05;8.03;;;3.80;;
3567;SDS011;1798;48.486;9.232;2023-11-19T10:50:32;5.00;;;3.00;;
3567;SDS011;1798;48.486;9.232;2023-11-19T10:53:00;6.63;;;3.43;;
3567;SDS011;1798;48.486;9.232;2023-11-19T10:55:27;9.90;;;2.70;;
3567;SDS011;1798;48.486;9.232;2023-11-19T10:57:56;7.73;;;3.10;;
3567;SDS011;1798;48.486;9.232;2023-11-19T11:00:26;5.90;;;3.27;;
3567;SDS011;1798;48.486;9.232;2023-11-19T11:02:55;6.90;;;3.37;;
3567;SDS011;1798;48.486;9.232;2023-11-19T11:05:23;5.33;;;3.20;;
3567;SDS011;1798;48.486;9.232;2023-11-19T11:07:52;5.43;;;3.10;;
3567;SDS011;1798;48.486;9.232;2023-11-19T11:10:19;9.27;;;3.00;;
3567;SDS011;1798;48.486;9.232;2023-11-19T11:12:47;6.53;;;3.07;;
3567;SDS011;1798;48.486;9.232;2023-11-19T11:15:15;10.80;;;3.57;;
3567;SDS011;1798;48.486;9.232;2023-11-19T11:17:44;6.20;;;2.87;;
3567;SDS011;1798;48.486;9.232;2023-11-19T11:20:13;5.93;;;3.30;;
3567;SDS011;1798;48.486;9.232;2023-11-19T11:22:42;6.40;;;3.60;;
3567;SDS011;1798;48.486;9.232;2023-11-19T11:25:22;4.60;;;2.80;;
3567;SDS011;1798;48.486;9.232;2023-11-19T11:28:03;6.00;;;3.80;;
3567;SDS011;1798;48.486;9.232;2023-11-19T11:30:38;5.40;;;2.97;;
3567;SDS011;1798;48.486;9.232;2023-11-19T11:33:14;6.73;;;3.30;;
3567;SDS011;1798;48.486;9.232;2023-11-19T11:35:53;6.20;;;2.80;;
3567;SDS011;1798;48.486;9.232;2023-11-19T11:38:22;5.20;;;3.00;;
3567;SDS011;1798;48.486;9.232;2023-11-19T11:43:49;4.67;;;2.70;;
3567;SDS011;1798;48.486;9.232;2023-11-19T11:49:27;26.60;;;5.13;;
3567;SDS011;1798;48.486;9.232;2023-11-19T11:52:03;5.77;;;2.60;;
3567;SDS011;1798;48.486;9.232;2023-11-19T11:54:30;19.23;;;3.93;;
3567;SDS011;1798;48.486;9.232;2023-11-19T11:57:01;36.27;;;5.07;;
3567;SDS011;1798;48.486;9.232;2023-11-19T11:59:31;7.17;;;3.20;;
3567;SDS011;1798;48.486;9.232;2023-11-19T12:02:03;6.27;;;2.77;;
3567;SDS011;1798;48.486;9.232;2023-11-19T12:04:30;8.80;;;3.03;;
3567;SDS011;1798;48.486;9.232;2023-11-19T12:07:05;4.83;;;2.57;;
3567;SDS011;1798;48.486;9.232;2023-11-19T12:09:32;61.00;;;3.50;;
3567;SDS011;1798;48.486;9.232;2023-11-19T12:12:11;9.80;;;2.80;;
3567;SDS011;1798;48.486;9.232;2023-11-19T12:20:15;13.10;;;3.00;;
3567;SDS011;1798;48.486;9.232;2023-11-19T12:22:44;10.70;;;2.70;;
3567;SDS011;1798;48.486;9.232;2023-11-19T12:25:13;4.50;;;2.60;;
3567;SDS011;1798;48.486;9.232;2023-11-19T12:27:41;7.30;;;2.60;;
3567;SDS011;1798;48.486;9.232;2023-11-19T12:30:08;4.77;;;2.73;;
3567;SDS011;1798;48.486;9.232;2023-11-19T12:32:39;8.30;;;2.80;;
3567;SDS011;1798;48.486;9.232;2023-11-19T12:35:06;8.10;;;2.57;;
3567;SDS011;1798;48.486;9.232;2023-11-19T12:37:39;6.40;;;3.10;;
3567;SDS011;1798;48.486;9.232;2023-11-19T12:40:12;4.97;;;2.10;;
3567;SDS011;1798;48.486;9.232;2023-11-19T12:42:40;9.53;;;2.53;;
3567;SDS011;1798;48.486;9.232;2023-11-19T12:45:07;5.80;;;2.43;;
3567;SDS011;1798;48.486;9.232;2023-11-19T12:47:35;6.53;;;3.07;;
3567;SDS011;1798;48.486;9.232;2023-11-19T12:50:02;7.93;;;2.90;;
3567;SDS011;1798;48.486;9.232;2023-11-19T12:52:29;6.20;;;2.70;;
3567;SDS011;1798;48.486;9.232;2023-11-19T12:54:56;5.10;;;2.40;;
3567;SDS011;1798;48.486;9.232;2023-11-19T12:57:36;4.93;;;2.77;;
3567;SDS011;1798;48.486;9.232;2023-11-19T13:00:04;7.73;;;3.10;;
3567;SDS011;1798;48.486;9.232;2023-11-19T13:02:44;9.60;;;2.60;;
3567;SDS011;1798;48.486;9.232;2023-11-19T13:05:25;5.40;;;2.70;;
3567;SDS011;1798;48.486;9.232;2023-11-19T13:08:00;8.10;;;3.03;;
3567;SDS011;1798;48.486;9.232;2023-11-19T13:10:27;5.03;;;2.97;;
3567;SDS011;1798;48.486;9.232;2023-11-19T13:13:06;9.67;;;3.57;;
3567;SDS011;1798;48.486;9.232;2023-11-19T13:15:34;5.67;;;3.43;;
3567;SDS011;1798;48.486;9.232;2023-11-19T13:18:02;5.80;;;2.50;;
3567;SDS011;1798;48.486;9.232;2023-11-19T13:20:28;6.07;;;2.63;;
3567;SDS011;1798;48.486;9.232;2023-11-19T13:22:56;4.70;;;2.67;;
3567;SDS011;1798;48.486;9.232;2023-11-19T13:25:23;10.50;;;2.80;;
3567;SDS011;1798;48.486;9.232;2023-11-19T13:27:50;5.93;;;2.60;;
3567;SDS011;1798;48.486;9.232;2023-11-19T13:30:18;5.73;;;2.70;;
3567;SDS011;1798;48.486;9.232;2023-11-19T13:32:44;5.30;;;3.10;;
3567;SDS011;1798;48.486;9.232;2023-11-19T13:35:11;9.77;;;2.73;;
3567;SDS011;1798;48.486;9.232;2023-11-19T13:37:38;7.83;;;2.70;;
3567;SDS011;1798;48.486;9.232;2023-11-19T13:40:05;4.67;;;2.60;;
3567;SDS011;1798;48.486;9.232;2023-11-19T13:42:34;6.57;;;3.10;;
3567;SDS011;1798;48.486;9.232;2023-11-19T13:45:02;7.83;;;2.93;;
3567;SDS011;1798;48.486;9.232;2023-11-19T13:47:31;6.37;;;2.90;;
3567;SDS011;1798;48.486;9.232;2023-11-19T13:49:57;6.80;;;2.70;;
3567;SDS011;1798;48.486;9.232;2023-11-19T13:52:24;7.90;;;2.73;;
3567;SDS011;1798;48.486;9.232;2023-11-19T13:54:51;15.87;;;2.53;;
3567;SDS011;1798;48.486;9.232;2023-11-19T13:57:17;5.70;;;2.50;;
3567;SDS011;1798;48.486;9.232;2023-11-19T13:59:44;7.90;;;2.90;;
3567;SDS011;1798;48.486;9.232;2023-11-19T14:02:10;5.00;;;2.70;;
3567;SDS011;1798;48.486;9.232;2023-11-19T14:04:38;4.53;;;2.43;;
3567;SDS011;1798;48.486;9.232;2023-11-19T14:07:05;4.67;;;2.70;;
3567;SDS011;1798;48.486;9.232;2023-11-19T14:09:31;6.27;;;3.07;;
3567;SDS011;1798;48.486;9.232;2023-11-19T14:11:58;4.13;;;2.53;;
3567;SDS011;1798;48.486;9.232;2023-11-19T14:14:25;4.57;;;2.60;;
3567;SDS011;1798;48.486;9.232;2023-11-19T14:16:51;5.40;;;2.87;;
3567;SDS011;1798;48.486;9.232;2023-11-19T14:19:18;5.33;;;2.90;;
3567;SDS011;1798;48.486;9.232;2023-11-19T14:21:46;7.77;;;2.83;;
3567;SDS011;1798;48.486;9.232;2023-11-19T14:24:13;4.90;;;2.70;;
3567;SDS011;1798;48.486;9.232;2023-11-19T14:26:39;5.30;;;2.73;;
3567;SDS011;1798;48.486;9.232;2023-11-19T14:29:06;5.77;;;3.30;;
3567;SDS011;1798;48.486;9.232;2023-11-19T14:31:33;6.50;;;3.07;;
3567;SDS011;1798;48.486;9.232;2023-11-19T14:34:00;7.07;;;2.60;;
3567;SDS011;1798;48.486;9.232;2023-11-19T14:36:27;5.23;;;2.80;;
3567;SDS011;1798;48.486;9.232;2023-11-19T14:38:55;6.20;;;2.70;;
3567;SDS011;1798;48.486;9.232;2023-11-19T14:41:23;5.07;;;2.90;;
3567;SDS011;1798;48.486;9.232;2023-11-19T14:43:49;7.73;;;2.77;;
3567;SDS011;1798;48.486;9.232;2023-11-19T14:46:16;7.53;;;3.00;;
3567;SDS011;1798;48.486;9.232;2023-11-19T14:48:42;5.87;;;2.83;;
3567;SDS011;1798;48.486;9.232;2023-11-19T14:51:09;5.50;;;2.60;;
3567;SDS011;1798;48.486;9.232;2023-11-19T14:53:36;7.63;;;2.80;;
3567;SDS011;1798;48.486;9.232;2023-11-19T14:56:04;6.23;;;2.90;;
3567;SDS011;1798;48.486;9.232;2023-11-19T14:58:32;4.50;;;2.60;;
3567;SDS011;1798;48.486;9.232;2023-11-19T15:00:58;9.53;;;2.83;;
3567;SDS011;1798;48.486;9.232;2023-11-19T15:03:25;22.73;;;4.40;;
3567;SDS011;1798;48.486;9.232;2023-11-19T15:05:51;6.53;;;2.67;;
3567;SDS011;1798;48.486;9.232;2023-11-19T15:08:18;5.90;;;2.80;;
3567;SDS011;1798;48.486;9.232;2023-11-19T15:10:45;5.37;;;2.70;;
3567;SDS011;1798;48.486;9.232;2023-11-19T15:13:13;4.40;;;2.40;;
3567;SDS011;1798;48.486;9.232;2023-11-19T15:15:40;5.20;;;3.13;;
3567;SDS011;1798;48.486;9.232;2023-11-19T15:18:07;4.70;;;2.80;;
3567;SDS011;1798;48.486;9.232;2023-11-19T15:20:34;7.20;;;3.00;;
3567;SDS011;1798;48.486;9.232;2023-11-19T15:23:01;35.93;;;2.57;;
3567;SDS011;1798;48.486;9.232;2023-11-19T15:25:29;4.37;;;2.60;;
3567;SDS011;1798;48.486;9.232;2023-11-19T15:27:55;6.03;;;2.60;;
3567;SDS011;1798;48.486;9.232;2023-11-19T15:30:23;4.50;;;2.40;;